You are listening to:
KSAR CTAF - Sparta, Illinois, United States

KSAR 282042Z AUTO 09005KT 10SM OVC010 09/07 A2999 RMK AO2

If stream doesn't start automatically press the play button
If stream stops then reload player then press play